This is the latest recevied weather packets stored in our database for station/object N0NB. If no packets are shown the sender has not sent any weather packets the latest 10 day(s).
| Time | Temp. | Humidity | Pressure | Rain* | Wind** | Luminosity | Snow |
|---|---|---|---|---|---|---|---|
| 1777641016 | 6.67° C | 83% | 1018 hPa | 0 mm | - | 155 W/m² | - |
| 1777640415 | 6.11° C | 85% | 1017.9 hPa | 0 mm | - | 153 W/m² | - |
| 1777639815 | 5.56° C | 87% | 1017.9 hPa | 0 mm | - | 133 W/m² | - |
| 1777639215 | 4.44° C | 87% | 1017.8 hPa | 0 mm | - | 111 W/m² | - |
| 1777638615 | 3.89° C | 89% | 1017.8 hPa | 0 mm | - | 83 W/m² | - |
| 1777638017 | 3.33° C | 89% | 1017.6 hPa | 0 mm | - | 58 W/m² | - |
| 1777637417 | 2.78° C | 89% | 1017.5 hPa | 0 mm | - | 44 W/m² | - |
| 1777636817 | 2.22° C | 90% | 1017.4 hPa | 0 mm | - | 28 W/m² | - |
| 1777636217 | 1.67° C | 89% | 1017.2 hPa | 0 mm | - | 14 W/m² | - |
| 1777635617 | 1.67° C | 88% | 1017.1 hPa | 0 mm | - | 9 W/m² | - |
| 1777635017 | 1.67° C | 89% | 1017.2 hPa | 0 mm | - | 2 W/m² | - |
| 1777634417 | 1.11° C | 89% | 1017 hPa | 0 mm | - | 0 W/m² | - |
| 1777633817 | 1.11° C | 89% | 1016.9 hPa | 0 mm | - | 0 W/m² | - |
| 1777633217 | 1.67° C | 87% | 1016.9 hPa | 0 mm | - | 0 W/m² | - |
| 1777632617 | 2.22° C | 87% | 1017.1 hPa | 0 mm | - | 0 W/m² | - |
| 1777632017 | 2.22° C | 87% | 1017.3 hPa | 0 mm | - | 0 W/m² | - |
| 1777631417 | 2.22° C | 87% | 1017.2 hPa | 0 mm | - | 0 W/m² | - |
| 1777630817 | 2.22° C | 85% | 1017.2 hPa | 0 mm | - | 0 W/m² | - |
| 1777630217 | 2.78° C | 85% | 1017.2 hPa | 0 mm | - | 0 W/m² | - |
| 1777629617 | 3.33° C | 86% | 1017.2 hPa | 0 mm | - | 0 W/m² | - |
| 1777629017 | 2.78° C | 87% | 1017.2 hPa | 0 mm | - | 0 W/m² | - |
| 1777628417 | 2.22° C | 88% | 1017.3 hPa | 0 mm | - | 0 W/m² | - |
| 1777627817 | 2.22° C | 87% | 1017.2 hPa | 0 mm | - | 0 W/m² | - |
| 1777627217 | 2.78° C | 86% | 1017.1 hPa | 0 mm | - | 0 W/m² | - |
| 1777626617 | 2.78° C | 86% | 1017.3 hPa | 0 mm | - | 0 W/m² | - |
* Rain latest hour (hover to see other rain measurements)
** Current wind speed in m/s (hover to see current wind gust speed)